sensor_id;sensor_type;location;lat;lon;timestamp;P1;durP1;ratioP1;P2;durP2;ratioP2
68993;SDS011;56054;50.968;5.816;2023-03-04T00:00:11;47.07;;;19.10;;
68993;SDS011;56054;50.968;5.816;2023-03-04T00:03:21;49.60;;;16.97;;
68993;SDS011;56054;50.968;5.816;2023-03-04T00:06:32;52.97;;;19.10;;
68993;SDS011;56054;50.968;5.816;2023-03-04T00:09:39;40.63;;;18.57;;
68993;SDS011;56054;50.968;5.816;2023-03-04T00:12:46;44.57;;;18.73;;
68993;SDS011;56054;50.968;5.816;2023-03-04T00:15:59;47.03;;;18.97;;
68993;SDS011;56054;50.968;5.816;2023-03-04T00:19:06;46.20;;;18.43;;
68993;SDS011;56054;50.968;5.816;2023-03-04T00:22:15;42.87;;;18.37;;
68993;SDS011;56054;50.968;5.816;2023-03-04T00:25:22;50.53;;;19.30;;
68993;SDS011;56054;50.968;5.816;2023-03-04T00:28:29;46.80;;;17.97;;
68993;SDS011;56054;50.968;5.816;2023-03-04T00:31:36;45.33;;;19.27;;
68993;SDS011;56054;50.968;5.816;2023-03-04T00:34:46;47.90;;;19.67;;
68993;SDS011;56054;50.968;5.816;2023-03-04T00:37:53;44.33;;;18.57;;
68993;SDS011;56054;50.968;5.816;2023-03-04T00:41:01;44.47;;;17.10;;
68993;SDS011;56054;50.968;5.816;2023-03-04T00:44:11;47.63;;;18.63;;
68993;SDS011;56054;50.968;5.816;2023-03-04T00:47:21;45.90;;;16.67;;
68993;SDS011;56054;50.968;5.816;2023-03-04T00:50:54;37.43;;;16.47;;
68993;SDS011;56054;50.968;5.816;2023-03-04T00:54:01;45.67;;;17.03;;
68993;SDS011;56054;50.968;5.816;2023-03-04T00:57:33;38.97;;;16.40;;
68993;SDS011;56054;50.968;5.816;2023-03-04T01:00:45;42.07;;;16.27;;
68993;SDS011;56054;50.968;5.816;2023-03-04T01:03:52;44.20;;;16.90;;
68993;SDS011;56054;50.968;5.816;2023-03-04T01:07:11;39.40;;;15.57;;
68993;SDS011;56054;50.968;5.816;2023-03-04T01:10:22;36.47;;;16.67;;
68993;SDS011;56054;50.968;5.816;2023-03-04T01:13:29;37.30;;;16.10;;
68993;SDS011;56054;50.968;5.816;2023-03-04T01:28:33;45.37;;;15.67;;
68993;SDS011;56054;50.968;5.816;2023-03-04T01:32:21;40.77;;;15.93;;
68993;SDS011;56054;50.968;5.816;2023-03-04T01:40:04;44.77;;;15.97;;
68993;SDS011;56054;50.968;5.816;2023-03-04T01:43:37;39.57;;;16.33;;
68993;SDS011;56054;50.968;5.816;2023-03-04T01:47:10;29.83;;;14.83;;
68993;SDS011;56054;50.968;5.816;2023-03-04T01:50:27;38.90;;;15.73;;
68993;SDS011;56054;50.968;5.816;2023-03-04T01:53:39;33.47;;;14.83;;
68993;SDS011;56054;50.968;5.816;2023-03-04T01:56:53;39.67;;;14.97;;
68993;SDS011;56054;50.968;5.816;2023-03-04T02:00:28;38.00;;;15.67;;
68993;SDS011;56054;50.968;5.816;2023-03-04T02:03:38;40.70;;;15.27;;
68993;SDS011;56054;50.968;5.816;2023-03-04T02:07:12;41.93;;;15.93;;
68993;SDS011;56054;50.968;5.816;2023-03-04T02:10:18;34.77;;;14.60;;
68993;SDS011;56054;50.968;5.816;2023-03-04T02:13:41;38.33;;;15.33;;
68993;SDS011;56054;50.968;5.816;2023-03-04T02:16:49;34.03;;;14.53;;
68993;SDS011;56054;50.968;5.816;2023-03-04T02:27:17;39.27;;;15.87;;
68993;SDS011;56054;50.968;5.816;2023-03-04T02:30:38;40.37;;;13.77;;
68993;SDS011;56054;50.968;5.816;2023-03-04T02:46:47;27.20;;;10.93;;
68993;SDS011;56054;50.968;5.816;2023-03-04T02:58:00;25.17;;;10.80;;
68993;SDS011;56054;50.968;5.816;2023-03-04T03:01:09;32.67;;;10.63;;
68993;SDS011;56054;50.968;5.816;2023-03-04T03:04:23;27.10;;;11.33;;
68993;SDS011;56054;50.968;5.816;2023-03-04T03:07:31;27.40;;;11.10;;
68993;SDS011;56054;50.968;5.816;2023-03-04T03:10:38;30.83;;;10.73;;
68993;SDS011;56054;50.968;5.816;2023-03-04T03:13:46;27.57;;;10.70;;
68993;SDS011;56054;50.968;5.816;2023-03-04T03:16:56;28.53;;;11.10;;
68993;SDS011;56054;50.968;5.816;2023-03-04T03:20:05;33.53;;;11.83;;
68993;SDS011;56054;50.968;5.816;2023-03-04T03:23:16;32.37;;;10.97;;
68993;SDS011;56054;50.968;5.816;2023-03-04T03:26:26;30.47;;;11.23;;
68993;SDS011;56054;50.968;5.816;2023-03-04T03:29:33;33.10;;;10.17;;
68993;SDS011;56054;50.968;5.816;2023-03-04T03:33:11;31.10;;;11.20;;
68993;SDS011;56054;50.968;5.816;2023-03-04T03:36:28;25.47;;;9.93;;
68993;SDS011;56054;50.968;5.816;2023-03-04T03:39:35;26.23;;;9.87;;
68993;SDS011;56054;50.968;5.816;2023-03-04T03:42:57;28.27;;;10.60;;
68993;SDS011;56054;50.968;5.816;2023-03-04T03:46:30;33.53;;;10.50;;
68993;SDS011;56054;50.968;5.816;2023-03-04T03:50:07;28.17;;;10.63;;
68993;SDS011;56054;50.968;5.816;2023-03-04T03:53:14;27.53;;;10.30;;
68993;SDS011;56054;50.968;5.816;2023-03-04T03:56:52;38.77;;;11.53;;
68993;SDS011;56054;50.968;5.816;2023-03-04T03:59:59;31.57;;;10.50;;
68993;SDS011;56054;50.968;5.816;2023-03-04T04:03:32;27.30;;;10.70;;
68993;SDS011;56054;50.968;5.816;2023-03-04T04:06:39;27.90;;;11.30;;
68993;SDS011;56054;50.968;5.816;2023-03-04T04:10:02;34.23;;;11.67;;
68993;SDS011;56054;50.968;5.816;2023-03-04T04:13:16;29.60;;;11.83;;
68993;SDS011;56054;50.968;5.816;2023-03-04T04:16:23;31.47;;;12.33;;
68993;SDS011;56054;50.968;5.816;2023-03-04T04:19:32;32.77;;;10.17;;
68993;SDS011;56054;50.968;5.816;2023-03-04T04:22:41;34.83;;;10.67;;
68993;SDS011;56054;50.968;5.816;2023-03-04T04:25:48;26.03;;;9.37;;
68993;SDS011;56054;50.968;5.816;2023-03-04T04:28:56;31.37;;;10.07;;
68993;SDS011;56054;50.968;5.816;2023-03-04T04:32:03;29.63;;;9.50;;
68993;SDS011;56054;50.968;5.816;2023-03-04T04:35:26;27.07;;;10.73;;
68993;SDS011;56054;50.968;5.816;2023-03-04T04:38:34;35.10;;;9.53;;
68993;SDS011;56054;50.968;5.816;2023-03-04T04:42:08;29.70;;;9.43;;
68993;SDS011;56054;50.968;5.816;2023-03-04T04:45:18;25.17;;;8.80;;
68993;SDS011;56054;50.968;5.816;2023-03-04T04:48:25;20.50;;;7.87;;
68993;SDS011;56054;50.968;5.816;2023-03-04T04:51:36;22.53;;;7.03;;
68993;SDS011;56054;50.968;5.816;2023-03-04T04:54:44;23.50;;;7.20;;
68993;SDS011;56054;50.968;5.816;2023-03-04T04:57:51;28.87;;;8.97;;
68993;SDS011;56054;50.968;5.816;2023-03-04T05:00:58;23.63;;;7.73;;
68993;SDS011;56054;50.968;5.816;2023-03-04T05:04:11;26.43;;;7.77;;
68993;SDS011;56054;50.968;5.816;2023-03-04T05:07:18;25.57;;;6.03;;
68993;SDS011;56054;50.968;5.816;2023-03-04T05:10:25;18.07;;;5.77;;
68993;SDS011;56054;50.968;5.816;2023-03-04T05:13:32;13.63;;;5.30;;
68993;SDS011;56054;50.968;5.816;2023-03-04T05:16:39;19.57;;;4.47;;
68993;SDS011;56054;50.968;5.816;2023-03-04T05:19:51;22.33;;;4.87;;
68993;SDS011;56054;50.968;5.816;2023-03-04T05:23:01;15.80;;;4.10;;
68993;SDS011;56054;50.968;5.816;2023-03-04T05:26:12;14.77;;;4.37;;
68993;SDS011;56054;50.968;5.816;2023-03-04T05:29:41;14.00;;;3.47;;
68993;SDS011;56054;50.968;5.816;2023-03-04T05:32:48;11.87;;;3.43;;
68993;SDS011;56054;50.968;5.816;2023-03-04T05:36:01;17.53;;;3.40;;
68993;SDS011;56054;50.968;5.816;2023-03-04T05:39:09;19.60;;;3.40;;
68993;SDS011;56054;50.968;5.816;2023-03-04T05:42:41;20.40;;;2.90;;
68993;SDS011;56054;50.968;5.816;2023-03-04T05:45:52;16.97;;;3.83;;
68993;SDS011;56054;50.968;5.816;2023-03-04T05:49:06;11.80;;;3.87;;
68993;SDS011;56054;50.968;5.816;2023-03-04T05:52:17;16.40;;;2.87;;
68993;SDS011;56054;50.968;5.816;2023-03-04T05:55:50;13.90;;;2.90;;
68993;SDS011;56054;50.968;5.816;2023-03-04T05:59:02;10.37;;;2.50;;
68993;SDS011;56054;50.968;5.816;2023-03-04T06:02:09;12.07;;;3.07;;
68993;SDS011;56054;50.968;5.816;2023-03-04T06:05:42;9.10;;;2.17;;
68993;SDS011;56054;50.968;5.816;2023-03-04T06:08:49;13.37;;;2.57;;
68993;SDS011;56054;50.968;5.816;2023-03-04T06:11:56;8.33;;;1.90;;
68993;SDS011;56054;50.968;5.816;2023-03-04T06:15:03;9.80;;;1.83;;
68993;SDS011;56054;50.968;5.816;2023-03-04T06:18:13;10.43;;;2.50;;
68993;SDS011;56054;50.968;5.816;2023-03-04T06:21:20;9.83;;;2.10;;
68993;SDS011;56054;50.968;5.816;2023-03-04T06:24:27;12.87;;;2.03;;
68993;SDS011;56054;50.968;5.816;2023-03-04T06:27:36;12.97;;;2.67;;
68993;SDS011;56054;50.968;5.816;2023-03-04T06:30:50;11.70;;;2.37;;
68993;SDS011;56054;50.968;5.816;2023-03-04T06:33:57;13.40;;;1.93;;
68993;SDS011;56054;50.968;5.816;2023-03-04T06:37:04;6.67;;;2.47;;
68993;SDS011;56054;50.968;5.816;2023-03-04T06:40:11;18.43;;;2.87;;
68993;SDS011;56054;50.968;5.816;2023-03-04T06:43:24;11.67;;;2.40;;
68993;SDS011;56054;50.968;5.816;2023-03-04T06:50:41;13.77;;;2.20;;
68993;SDS011;56054;50.968;5.816;2023-03-04T06:53:51;13.63;;;2.07;;
68993;SDS011;56054;50.968;5.816;2023-03-04T06:56:58;11.50;;;2.40;;
68993;SDS011;56054;50.968;5.816;2023-03-04T07:00:07;9.80;;;2.77;;
68993;SDS011;56054;50.968;5.816;2023-03-04T07:03:21;5.03;;;1.90;;
68993;SDS011;56054;50.968;5.816;2023-03-04T07:06:28;11.83;;;2.00;;
68993;SDS011;56054;50.968;5.816;2023-03-04T07:09:38;10.40;;;2.03;;
68993;SDS011;56054;50.968;5.816;2023-03-04T07:12:45;9.13;;;1.63;;
68993;SDS011;56054;50.968;5.816;2023-03-04T07:16:03;13.23;;;2.57;;
68993;SDS011;56054;50.968;5.816;2023-03-04T07:19:17;17.70;;;2.07;;
68993;SDS011;56054;50.968;5.816;2023-03-04T07:22:24;8.50;;;1.90;;
68993;SDS011;56054;50.968;5.816;2023-03-04T07:25:42;6.70;;;2.50;;
68993;SDS011;56054;50.968;5.816;2023-03-04T07:28:49;5.73;;;2.27;;
68993;SDS011;56054;50.968;5.816;2023-03-04T07:31:56;7.20;;;1.50;;
68993;SDS011;56054;50.968;5.816;2023-03-04T07:35:07;7.33;;;2.10;;
68993;SDS011;56054;50.968;5.816;2023-03-04T07:38:31;8.90;;;2.07;;
68993;SDS011;56054;50.968;5.816;2023-03-04T07:41:39;20.37;;;2.20;;
68993;SDS011;56054;50.968;5.816;2023-03-04T07:44:46;9.60;;;2.70;;
68993;SDS011;56054;50.968;5.816;2023-03-04T07:48:19;9.07;;;2.00;;
68993;SDS011;56054;50.968;5.816;2023-03-04T07:51:26;8.97;;;2.30;;
68993;SDS011;56054;50.968;5.816;2023-03-04T07:54:59;12.23;;;2.20;;
68993;SDS011;56054;50.968;5.816;2023-03-04T07:58:06;6.30;;;1.40;;
68993;SDS011;56054;50.968;5.816;2023-03-04T08:01:15;8.50;;;1.83;;
68993;SDS011;56054;50.968;5.816;2023-03-04T08:04:26;7.83;;;2.20;;
68993;SDS011;56054;50.968;5.816;2023-03-04T08:07:38;8.47;;;2.27;;
68993;SDS011;56054;50.968;5.816;2023-03-04T08:10:44;7.63;;;1.80;;
68993;SDS011;56054;50.968;5.816;2023-03-04T08:13:51;10.13;;;1.80;;
68993;SDS011;56054;50.968;5.816;2023-03-04T08:16:58;15.87;;;1.80;;
68993;SDS011;56054;50.968;5.816;2023-03-04T08:20:06;9.37;;;1.57;;
68993;SDS011;56054;50.968;5.816;2023-03-04T08:23:14;5.73;;;1.50;;
68993;SDS011;56054;50.968;5.816;2023-03-04T08:26:48;15.97;;;2.50;;
68993;SDS011;56054;50.968;5.816;2023-03-04T08:30:06;9.07;;;1.73;;
68993;SDS011;56054;50.968;5.816;2023-03-04T08:33:17;8.97;;;2.37;;
68993;SDS011;56054;50.968;5.816;2023-03-04T08:36:36;9.77;;;2.23;;
68993;SDS011;56054;50.968;5.816;2023-03-04T08:40:21;14.20;;;1.80;;
68993;SDS011;56054;50.968;5.816;2023-03-04T08:43:42;6.73;;;1.73;;
68993;SDS011;56054;50.968;5.816;2023-03-04T08:47:16;8.93;;;1.77;;
68993;SDS011;56054;50.968;5.816;2023-03-04T08:50:43;9.90;;;2.37;;
68993;SDS011;56054;50.968;5.816;2023-03-04T08:54:20;14.27;;;2.20;;
68993;SDS011;56054;50.968;5.816;2023-03-04T08:57:36;6.50;;;1.43;;
68993;SDS011;56054;50.968;5.816;2023-03-04T09:00:50;5.77;;;1.63;;
68993;SDS011;56054;50.968;5.816;2023-03-04T09:04:21;8.17;;;1.40;;
68993;SDS011;56054;50.968;5.816;2023-03-04T09:07:28;13.13;;;1.33;;
68993;SDS011;56054;50.968;5.816;2023-03-04T09:10:43;6.63;;;1.23;;
68993;SDS011;56054;50.968;5.816;2023-03-04T09:13:56;8.83;;;1.57;;
68993;SDS011;56054;50.968;5.816;2023-03-04T09:17:04;8.20;;;2.00;;
68993;SDS011;56054;50.968;5.816;2023-03-04T09:20:20;11.93;;;1.53;;
68993;SDS011;56054;50.968;5.816;2023-03-04T09:23:33;10.20;;;1.63;;
68993;SDS011;56054;50.968;5.816;2023-03-04T09:26:40;13.07;;;1.77;;
68993;SDS011;56054;50.968;5.816;2023-03-04T09:29:47;3.13;;;1.20;;
68993;SDS011;56054;50.968;5.816;2023-03-04T09:32:54;8.30;;;1.93;;
68993;SDS011;56054;50.968;5.816;2023-03-04T09:36:04;9.40;;;1.67;;
68993;SDS011;56054;50.968;5.816;2023-03-04T09:39:13;2.93;;;1.40;;
68993;SDS011;56054;50.968;5.816;2023-03-04T09:42:26;6.93;;;1.60;;
68993;SDS011;56054;50.968;5.816;2023-03-04T09:45:47;10.77;;;1.37;;
68993;SDS011;56054;50.968;5.816;2023-03-04T09:48:58;8.50;;;1.80;;
68993;SDS011;56054;50.968;5.816;2023-03-04T09:56:22;8.10;;;1.47;;
68993;SDS011;56054;50.968;5.816;2023-03-04T10:03:21;4.57;;;1.43;;
68993;SDS011;56054;50.968;5.816;2023-03-04T10:06:55;6.40;;;1.40;;
68993;SDS011;56054;50.968;5.816;2023-03-04T10:10:16;8.40;;;1.83;;
68993;SDS011;56054;50.968;5.816;2023-03-04T10:13:33;5.40;;;1.30;;
68993;SDS011;56054;50.968;5.816;2023-03-04T10:17:14;8.33;;;1.30;;
68993;SDS011;56054;50.968;5.816;2023-03-04T10:20:30;9.57;;;1.47;;
68993;SDS011;56054;50.968;5.816;2023-03-04T10:24:18;5.37;;;1.73;;
68993;SDS011;56054;50.968;5.816;2023-03-04T10:27:31;8.77;;;1.37;;
68993;SDS011;56054;50.968;5.816;2023-03-04T10:34:22;9.27;;;1.97;;
68993;SDS011;56054;50.968;5.816;2023-03-04T10:41:12;8.30;;;1.77;;
68993;SDS011;56054;50.968;5.816;2023-03-04T10:44:26;12.73;;;1.80;;
68993;SDS011;56054;50.968;5.816;2023-03-04T10:47:34;3.87;;;1.53;;
68993;SDS011;56054;50.968;5.816;2023-03-04T10:50:41;14.00;;;1.70;;
68993;SDS011;56054;50.968;5.816;2023-03-04T10:57:36;7.43;;;1.63;;
68993;SDS011;56054;50.968;5.816;2023-03-04T11:01:02;5.00;;;1.43;;
68993;SDS011;56054;50.968;5.816;2023-03-04T11:04:34;5.50;;;1.40;;
68993;SDS011;56054;50.968;5.816;2023-03-04T11:07:51;5.73;;;1.13;;
68993;SDS011;56054;50.968;5.816;2023-03-04T11:10:59;2.03;;;1.10;;
68993;SDS011;56054;50.968;5.816;2023-03-04T11:22:01;1.73;;;0.90;;
68993;SDS011;56054;50.968;5.816;2023-03-04T11:28:52;1.50;;;0.80;;
68993;SDS011;56054;50.968;5.816;2023-03-04T11:32:31;5.87;;;0.87;;
68993;SDS011;56054;50.968;5.816;2023-03-04T11:35:55;4.10;;;1.17;;
68993;SDS011;56054;50.968;5.816;2023-03-04T11:39:38;6.33;;;1.90;;
68993;SDS011;56054;50.968;5.816;2023-03-04T11:57:21;6.37;;;1.50;;
68993;SDS011;56054;50.968;5.816;2023-03-04T12:00:55;5.00;;;1.43;;
68993;SDS011;56054;50.968;5.816;2023-03-04T12:08:27;6.00;;;1.00;;
68993;SDS011;56054;50.968;5.816;2023-03-04T12:15:37;6.23;;;1.40;;
68993;SDS011;56054;50.968;5.816;2023-03-04T12:19:21;9.20;;;1.50;;
68993;SDS011;56054;50.968;5.816;2023-03-04T12:22:44;7.87;;;1.80;;
68993;SDS011;56054;50.968;5.816;2023-03-04T12:26:02;2.80;;;1.10;;
68993;SDS011;56054;50.968;5.816;2023-03-04T12:29:59;4.67;;;1.00;;
68993;SDS011;56054;50.968;5.816;2023-03-04T12:33:38;4.67;;;1.33;;
68993;SDS011;56054;50.968;5.816;2023-03-04T12:48:43;8.57;;;2.13;;
68993;SDS011;56054;50.968;5.816;2023-03-04T12:55:18;5.85;;;1.63;;
68993;SDS011;56054;50.968;5.816;2023-03-04T12:58:30;9.23;;;1.50;;
68993;SDS011;56054;50.968;5.816;2023-03-04T13:01:55;4.73;;;1.53;;
68993;SDS011;56054;50.968;5.816;2023-03-04T13:12:19;4.47;;;1.77;;
68993;SDS011;56054;50.968;5.816;2023-03-04T13:15:38;2.23;;;1.07;;
68993;SDS011;56054;50.968;5.816;2023-03-04T13:18:45;5.00;;;1.63;;
68993;SDS011;56054;50.968;5.816;2023-03-04T13:21:52;3.03;;;1.90;;
68993;SDS011;56054;50.968;5.816;2023-03-04T13:28:37;5.67;;;1.67;;
68993;SDS011;56054;50.968;5.816;2023-03-04T13:32:10;2.07;;;1.00;;
68993;SDS011;56054;50.968;5.816;2023-03-04T13:36:03;14.27;;;1.33;;
68993;SDS011;56054;50.968;5.816;2023-03-04T13:42:36;7.43;;;1.60;;
68993;SDS011;56054;50.968;5.816;2023-03-04T13:45:43;2.87;;;1.40;;
68993;SDS011;56054;50.968;5.816;2023-03-04T14:02:45;4.50;;;2.07;;
68993;SDS011;56054;50.968;5.816;2023-03-04T14:09:34;4.67;;;1.90;;
68993;SDS011;56054;50.968;5.816;2023-03-04T14:12:51;3.13;;;1.40;;
68993;SDS011;56054;50.968;5.816;2023-03-04T14:16:07;3.93;;;1.70;;
68993;SDS011;56054;50.968;5.816;2023-03-04T14:19:16;4.10;;;1.97;;
68993;SDS011;56054;50.968;5.816;2023-03-04T14:22:36;6.77;;;2.23;;
68993;SDS011;56054;50.968;5.816;2023-03-04T14:26:02;7.30;;;2.30;;
68993;SDS011;56054;50.968;5.816;2023-03-04T14:29:23;9.60;;;2.57;;
68993;SDS011;56054;50.968;5.816;2023-03-04T14:32:31;4.50;;;2.40;;
68993;SDS011;56054;50.968;5.816;2023-03-04T14:35:49;3.77;;;2.07;;
68993;SDS011;56054;50.968;5.816;2023-03-04T14:39:03;8.60;;;2.53;;
68993;SDS011;56054;50.968;5.816;2023-03-04T14:42:13;8.40;;;2.07;;
68993;SDS011;56054;50.968;5.816;2023-03-04T14:45:52;3.57;;;1.90;;
68993;SDS011;56054;50.968;5.816;2023-03-04T14:49:28;4.77;;;2.10;;
68993;SDS011;56054;50.968;5.816;2023-03-04T14:52:39;3.10;;;1.90;;
68993;SDS011;56054;50.968;5.816;2023-03-04T14:56:03;4.50;;;1.90;;
68993;SDS011;56054;50.968;5.816;2023-03-04T14:59:17;5.13;;;2.13;;
68993;SDS011;56054;50.968;5.816;2023-03-04T15:06:48;5.87;;;3.70;;
68993;SDS011;56054;50.968;5.816;2023-03-04T15:09:59;4.50;;;2.43;;
68993;SDS011;56054;50.968;5.816;2023-03-04T15:13:42;7.43;;;2.37;;
68993;SDS011;56054;50.968;5.816;2023-03-04T15:17:19;6.63;;;2.50;;
68993;SDS011;56054;50.968;5.816;2023-03-04T15:24:34;5.17;;;2.57;;
68993;SDS011;56054;50.968;5.816;2023-03-04T15:27:54;4.27;;;2.33;;
68993;SDS011;56054;50.968;5.816;2023-03-04T15:31:02;3.77;;;2.53;;
68993;SDS011;56054;50.968;5.816;2023-03-04T15:34:13;6.57;;;2.00;;
68993;SDS011;56054;50.968;5.816;2023-03-04T15:37:39;6.60;;;2.40;;
68993;SDS011;56054;50.968;5.816;2023-03-04T15:40:47;4.17;;;2.40;;
68993;SDS011;56054;50.968;5.816;2023-03-04T15:44:05;8.30;;;2.07;;
68993;SDS011;56054;50.968;5.816;2023-03-04T15:47:24;7.30;;;2.03;;
68993;SDS011;56054;50.968;5.816;2023-03-04T15:50:36;4.23;;;2.20;;
68993;SDS011;56054;50.968;5.816;2023-03-04T15:54:01;7.23;;;2.67;;
68993;SDS011;56054;50.968;5.816;2023-03-04T15:57:20;4.90;;;2.80;;
68993;SDS011;56054;50.968;5.816;2023-03-04T16:00:29;4.17;;;2.87;;
68993;SDS011;56054;50.968;5.816;2023-03-04T16:03:36;5.63;;;2.97;;
68993;SDS011;56054;50.968;5.816;2023-03-04T16:06:53;5.37;;;2.73;;
68993;SDS011;56054;50.968;5.816;2023-03-04T16:10:01;3.47;;;2.30;;
68993;SDS011;56054;50.968;5.816;2023-03-04T16:13:30;4.60;;;2.53;;
68993;SDS011;56054;50.968;5.816;2023-03-04T16:16:43;6.60;;;2.60;;
68993;SDS011;56054;50.968;5.816;2023-03-04T16:19:51;5.00;;;2.57;;
68993;SDS011;56054;50.968;5.816;2023-03-04T16:23:27;11.43;;;2.90;;
68993;SDS011;56054;50.968;5.816;2023-03-04T16:27:00;9.67;;;3.43;;
68993;SDS011;56054;50.968;5.816;2023-03-04T16:30:28;4.60;;;2.87;;
68993;SDS011;56054;50.968;5.816;2023-03-04T16:33:35;6.00;;;3.27;;
68993;SDS011;56054;50.968;5.816;2023-03-04T16:36:52;10.87;;;3.63;;
68993;SDS011;56054;50.968;5.816;2023-03-04T16:40:10;8.80;;;4.20;;
68993;SDS011;56054;50.968;5.816;2023-03-04T16:43:23;7.30;;;3.60;;
68993;SDS011;56054;50.968;5.816;2023-03-04T16:46:43;8.30;;;3.90;;
68993;SDS011;56054;50.968;5.816;2023-03-04T16:50:27;6.30;;;4.40;;
68993;SDS011;56054;50.968;5.816;2023-03-04T16:53:43;7.53;;;3.47;;
68993;SDS011;56054;50.968;5.816;2023-03-04T16:57:09;6.53;;;3.83;;
68993;SDS011;56054;50.968;5.816;2023-03-04T17:00:42;13.40;;;4.43;;
68993;SDS011;56054;50.968;5.816;2023-03-04T17:03:53;7.23;;;4.27;;
68993;SDS011;56054;50.968;5.816;2023-03-04T17:07:00;11.50;;;4.60;;
68993;SDS011;56054;50.968;5.816;2023-03-04T17:10:13;7.83;;;4.70;;
68993;SDS011;56054;50.968;5.816;2023-03-04T17:13:27;10.00;;;5.13;;
68993;SDS011;56054;50.968;5.816;2023-03-04T17:16:36;15.10;;;7.17;;
68993;SDS011;56054;50.968;5.816;2023-03-04T17:19:59;8.80;;;5.33;;
68993;SDS011;56054;50.968;5.816;2023-03-04T17:23:09;10.03;;;5.27;;
68993;SDS011;56054;50.968;5.816;2023-03-04T17:26:21;9.87;;;5.80;;
68993;SDS011;56054;50.968;5.816;2023-03-04T17:29:38;7.50;;;5.33;;
68993;SDS011;56054;50.968;5.816;2023-03-04T17:32:45;10.40;;;5.47;;
68993;SDS011;56054;50.968;5.816;2023-03-04T17:35:52;8.10;;;5.40;;
68993;SDS011;56054;50.968;5.816;2023-03-04T17:39:00;8.13;;;5.47;;
68993;SDS011;56054;50.968;5.816;2023-03-04T17:42:07;6.70;;;4.90;;
68993;SDS011;56054;50.968;5.816;2023-03-04T17:45:14;8.87;;;5.03;;
68993;SDS011;56054;50.968;5.816;2023-03-04T17:48:21;9.60;;;5.37;;
68993;SDS011;56054;50.968;5.816;2023-03-04T17:51:30;6.63;;;5.23;;
68993;SDS011;56054;50.968;5.816;2023-03-04T17:54:43;9.37;;;5.20;;
68993;SDS011;56054;50.968;5.816;2023-03-04T17:57:50;10.40;;;4.97;;
68993;SDS011;56054;50.968;5.816;2023-03-04T18:01:14;9.23;;;4.70;;
68993;SDS011;56054;50.968;5.816;2023-03-04T18:04:28;11.00;;;4.67;;
68993;SDS011;56054;50.968;5.816;2023-03-04T18:07:37;9.50;;;4.90;;
68993;SDS011;56054;50.968;5.816;2023-03-04T18:10:52;9.40;;;4.53;;
68993;SDS011;56054;50.968;5.816;2023-03-04T18:13:58;11.63;;;3.13;;
68993;SDS011;56054;50.968;5.816;2023-03-04T18:17:08;8.90;;;3.60;;
68993;SDS011;56054;50.968;5.816;2023-03-04T18:20:16;14.43;;;2.70;;
68993;SDS011;56054;50.968;5.816;2023-03-04T18:23:47;8.27;;;2.27;;
68993;SDS011;56054;50.968;5.816;2023-03-04T18:27:06;11.33;;;2.43;;
68993;SDS011;56054;50.968;5.816;2023-03-04T18:30:18;13.67;;;2.07;;
68993;SDS011;56054;50.968;5.816;2023-03-04T18:33:31;9.80;;;1.73;;
68993;SDS011;56054;50.968;5.816;2023-03-04T18:36:41;9.87;;;2.07;;
68993;SDS011;56054;50.968;5.816;2023-03-04T18:39:48;14.07;;;4.13;;
68993;SDS011;56054;50.968;5.816;2023-03-04T18:42:56;20.97;;;4.33;;
68993;SDS011;56054;50.968;5.816;2023-03-04T18:46:49;13.03;;;2.40;;
68993;SDS011;56054;50.968;5.816;2023-03-04T19:16:20;5.57;;;1.80;;
68993;SDS011;56054;50.968;5.816;2023-03-04T19:20:04;5.00;;;2.17;;
68993;SDS011;56054;50.968;5.816;2023-03-04T19:23:18;8.20;;;2.50;;
68993;SDS011;56054;50.968;5.816;2023-03-04T19:26:25;9.70;;;2.93;;
68993;SDS011;56054;50.968;5.816;2023-03-04T19:29:37;8.40;;;2.13;;
68993;SDS011;56054;50.968;5.816;2023-03-04T19:32:44;6.17;;;1.33;;
68993;SDS011;56054;50.968;5.816;2023-03-04T19:35:52;4.07;;;1.30;;
68993;SDS011;56054;50.968;5.816;2023-03-04T19:38:58;4.00;;;1.20;;
68993;SDS011;56054;50.968;5.816;2023-03-04T19:42:08;4.07;;;1.40;;
68993;SDS011;56054;50.968;5.816;2023-03-04T19:45:15;5.70;;;1.13;;
68993;SDS011;56054;50.968;5.816;2023-03-04T19:48:22;6.50;;;1.70;;
68993;SDS011;56054;50.968;5.816;2023-03-04T19:51:30;7.23;;;2.10;;
68993;SDS011;56054;50.968;5.816;2023-03-04T19:54:36;10.87;;;1.67;;
68993;SDS011;56054;50.968;5.816;2023-03-04T19:57:43;9.07;;;1.67;;
68993;SDS011;56054;50.968;5.816;2023-03-04T20:00:50;8.77;;;1.67;;
68993;SDS011;56054;50.968;5.816;2023-03-04T20:04:03;10.53;;;1.40;;
68993;SDS011;56054;50.968;5.816;2023-03-04T20:07:18;5.07;;;1.27;;
68993;SDS011;56054;50.968;5.816;2023-03-04T20:10:24;4.00;;;1.40;;
68993;SDS011;56054;50.968;5.816;2023-03-04T20:13:31;6.80;;;1.30;;
68993;SDS011;56054;50.968;5.816;2023-03-04T20:16:38;7.00;;;1.00;;
68993;SDS011;56054;50.968;5.816;2023-03-04T20:19:46;9.77;;;1.30;;
68993;SDS011;56054;50.968;5.816;2023-03-04T20:23:00;8.57;;;1.13;;
68993;SDS011;56054;50.968;5.816;2023-03-04T20:26:13;2.60;;;1.10;;
68993;SDS011;56054;50.968;5.816;2023-03-04T20:29:29;8.90;;;1.20;;
68993;SDS011;56054;50.968;5.816;2023-03-04T20:32:36;7.73;;;1.13;;
68993;SDS011;56054;50.968;5.816;2023-03-04T20:35:47;5.30;;;1.80;;
68993;SDS011;56054;50.968;5.816;2023-03-04T20:38:54;3.87;;;1.57;;
68993;SDS011;56054;50.968;5.816;2023-03-04T20:42:01;6.57;;;1.50;;
68993;SDS011;56054;50.968;5.816;2023-03-04T20:45:18;9.20;;;1.37;;
68993;SDS011;56054;50.968;5.816;2023-03-04T20:48:26;8.37;;;1.47;;
68993;SDS011;56054;50.968;5.816;2023-03-04T20:51:38;5.93;;;2.00;;
68993;SDS011;56054;50.968;5.816;2023-03-04T20:54:46;4.03;;;1.20;;
68993;SDS011;56054;50.968;5.816;2023-03-04T20:57:59;8.23;;;1.20;;
68993;SDS011;56054;50.968;5.816;2023-03-04T21:01:07;5.23;;;1.23;;
68993;SDS011;56054;50.968;5.816;2023-03-04T21:04:14;7.67;;;1.67;;
68993;SDS011;56054;50.968;5.816;2023-03-04T21:07:22;5.00;;;1.20;;
68993;SDS011;56054;50.968;5.816;2023-03-04T21:10:33;5.43;;;1.87;;
68993;SDS011;56054;50.968;5.816;2023-03-04T21:13:42;3.93;;;1.57;;
68993;SDS011;56054;50.968;5.816;2023-03-04T21:16:51;12.13;;;1.23;;
68993;SDS011;56054;50.968;5.816;2023-03-04T21:20:04;5.70;;;1.50;;
68993;SDS011;56054;50.968;5.816;2023-03-04T21:23:12;8.10;;;1.77;;
68993;SDS011;56054;50.968;5.816;2023-03-04T21:26:19;8.73;;;1.43;;
68993;SDS011;56054;50.968;5.816;2023-03-04T21:29:37;5.40;;;1.30;;
68993;SDS011;56054;50.968;5.816;2023-03-04T21:32:47;6.80;;;1.53;;
68993;SDS011;56054;50.968;5.816;2023-03-04T21:35:58;5.63;;;1.00;;
68993;SDS011;56054;50.968;5.816;2023-03-04T21:39:31;5.90;;;1.10;;
68993;SDS011;56054;50.968;5.816;2023-03-04T21:42:47;4.80;;;1.23;;
68993;SDS011;56054;50.968;5.816;2023-03-04T21:45:57;2.73;;;0.93;;
68993;SDS011;56054;50.968;5.816;2023-03-04T21:49:30;4.90;;;1.20;;
68993;SDS011;56054;50.968;5.816;2023-03-04T21:52:38;11.73;;;1.33;;
68993;SDS011;56054;50.968;5.816;2023-03-04T21:55:45;2.93;;;1.00;;
68993;SDS011;56054;50.968;5.816;2023-03-04T21:58:53;10.10;;;1.60;;
68993;SDS011;56054;50.968;5.816;2023-03-04T22:02:00;7.63;;;1.40;;
68993;SDS011;56054;50.968;5.816;2023-03-04T22:05:38;5.57;;;1.23;;
68993;SDS011;56054;50.968;5.816;2023-03-04T22:08:47;4.83;;;1.37;;
68993;SDS011;56054;50.968;5.816;2023-03-04T22:11:57;5.60;;;1.47;;
68993;SDS011;56054;50.968;5.816;2023-03-04T22:15:04;6.03;;;1.77;;
68993;SDS011;56054;50.968;5.816;2023-03-04T22:18:12;8.17;;;1.60;;
68993;SDS011;56054;50.968;5.816;2023-03-04T22:21:20;5.80;;;1.53;;
68993;SDS011;56054;50.968;5.816;2023-03-04T22:24:28;11.17;;;1.67;;
68993;SDS011;56054;50.968;5.816;2023-03-04T22:27:44;5.83;;;1.70;;